sensor_id;sensor_type;location;lat;lon;timestamp;temperature;humidity
10885;DHT22;5495;53.252;10.390;2022-07-22T00:00:53;19.40;99.90
10885;DHT22;5495;53.252;10.390;2022-07-22T00:03:22;19.40;99.90
10885;DHT22;5495;53.252;10.390;2022-07-22T00:05:50;19.40;99.90
10885;DHT22;5495;53.252;10.390;2022-07-22T00:08:18;19.40;99.90
10885;DHT22;5495;53.252;10.390;2022-07-22T00:10:45;19.50;99.90
10885;DHT22;5495;53.252;10.390;2022-07-22T00:13:13;19.50;99.90
10885;DHT22;5495;53.252;10.390;2022-07-22T00:15:41;19.50;99.90
10885;DHT22;5495;53.252;10.390;2022-07-22T00:18:08;19.50;99.90
10885;DHT22;5495;53.252;10.390;2022-07-22T00:20:38;19.50;99.90
10885;DHT22;5495;53.252;10.390;2022-07-22T00:23:05;19.50;99.90
10885;DHT22;5495;53.252;10.390;2022-07-22T00:25:34;19.50;99.90
10885;DHT22;5495;53.252;10.390;2022-07-22T00:28:01;19.50;99.90
10885;DHT22;5495;53.252;10.390;2022-07-22T00:30:29;19.50;99.90
10885;DHT22;5495;53.252;10.390;2022-07-22T00:32:57;19.50;99.90
10885;DHT22;5495;53.252;10.390;2022-07-22T00:35:25;19.50;99.90
10885;DHT22;5495;53.252;10.390;2022-07-22T00:37:54;19.50;99.90
10885;DHT22;5495;53.252;10.390;2022-07-22T00:40:24;19.50;99.90
10885;DHT22;5495;53.252;10.390;2022-07-22T00:42:52;19.50;99.90
10885;DHT22;5495;53.252;10.390;2022-07-22T00:45:19;19.50;99.90
10885;DHT22;5495;53.252;10.390;2022-07-22T00:47:47;19.40;99.90
10885;DHT22;5495;53.252;10.390;2022-07-22T00:50:15;19.50;99.90
10885;DHT22;5495;53.252;10.390;2022-07-22T00:52:46;19.40;99.90
10885;DHT22;5495;53.252;10.390;2022-07-22T00:55:15;19.50;99.90
10885;DHT22;5495;53.252;10.390;2022-07-22T00:57:43;19.50;99.90
10885;DHT22;5495;53.252;10.390;2022-07-22T01:00:16;19.50;99.90
10885;DHT22;5495;53.252;10.390;2022-07-22T01:02:44;19.50;99.90
10885;DHT22;5495;53.252;10.390;2022-07-22T01:05:12;19.50;99.90
10885;DHT22;5495;53.252;10.390;2022-07-22T01:07:40;19.50;99.90
10885;DHT22;5495;53.252;10.390;2022-07-22T01:10:08;19.60;99.90
10885;DHT22;5495;53.252;10.390;2022-07-22T01:12:38;19.60;99.90
10885;DHT22;5495;53.252;10.390;2022-07-22T01:15:07;19.60;99.90
10885;DHT22;5495;53.252;10.390;2022-07-22T01:17:34;19.60;99.90
10885;DHT22;5495;53.252;10.390;2022-07-22T01:20:05;19.60;99.90
10885;DHT22;5495;53.252;10.390;2022-07-22T01:22:34;19.60;99.90
10885;DHT22;5495;53.252;10.390;2022-07-22T01:25:03;19.60;99.90
10885;DHT22;5495;53.252;10.390;2022-07-22T01:27:31;19.60;99.90
10885;DHT22;5495;53.252;10.390;2022-07-22T01:29:59;19.60;99.90
10885;DHT22;5495;53.252;10.390;2022-07-22T01:32:27;19.70;99.90
10885;DHT22;5495;53.252;10.390;2022-07-22T01:34:54;19.60;99.90
10885;DHT22;5495;53.252;10.390;2022-07-22T01:37:24;19.60;99.90
10885;DHT22;5495;53.252;10.390;2022-07-22T01:39:51;19.60;99.90
10885;DHT22;5495;53.252;10.390;2022-07-22T01:42:19;19.60;99.90
10885;DHT22;5495;53.252;10.390;2022-07-22T01:44:47;19.70;99.90
10885;DHT22;5495;53.252;10.390;2022-07-22T01:47:14;19.60;99.90
10885;DHT22;5495;53.252;10.390;2022-07-22T01:49:42;19.70;99.90
10885;DHT22;5495;53.252;10.390;2022-07-22T01:52:10;19.70;99.90
10885;DHT22;5495;53.252;10.390;2022-07-22T01:54:39;19.70;99.90
10885;DHT22;5495;53.252;10.390;2022-07-22T01:57:07;19.60;99.90
10885;DHT22;5495;53.252;10.390;2022-07-22T01:59:34;19.60;99.90
10885;DHT22;5495;53.252;10.390;2022-07-22T02:02:02;19.50;99.90
10885;DHT22;5495;53.252;10.390;2022-07-22T02:04:30;19.50;99.90
10885;DHT22;5495;53.252;10.390;2022-07-22T02:06:57;19.40;99.90
10885;DHT22;5495;53.252;10.390;2022-07-22T02:09:25;19.40;99.90
10885;DHT22;5495;53.252;10.390;2022-07-22T02:11:54;19.40;99.90
10885;DHT22;5495;53.252;10.390;2022-07-22T02:14:23;19.30;99.90
10885;DHT22;5495;53.252;10.390;2022-07-22T02:16:51;19.30;99.90
10885;DHT22;5495;53.252;10.390;2022-07-22T02:19:19;19.30;99.90
10885;DHT22;5495;53.252;10.390;2022-07-22T02:21:47;19.20;99.90
10885;DHT22;5495;53.252;10.390;2022-07-22T02:24:14;19.30;99.90
10885;DHT22;5495;53.252;10.390;2022-07-22T02:26:42;19.20;99.90
10885;DHT22;5495;53.252;10.390;2022-07-22T02:29:11;19.10;99.90
10885;DHT22;5495;53.252;10.390;2022-07-22T02:31:39;19.10;99.90
10885;DHT22;5495;53.252;10.390;2022-07-22T02:34:07;19.10;99.90
10885;DHT22;5495;53.252;10.390;2022-07-22T02:36:37;19.10;99.90
10885;DHT22;5495;53.252;10.390;2022-07-22T02:39:05;19.00;99.90
10885;DHT22;5495;53.252;10.390;2022-07-22T02:41:33;19.00;99.90
10885;DHT22;5495;53.252;10.390;2022-07-22T02:44:01;19.00;99.90
10885;DHT22;5495;53.252;10.390;2022-07-22T02:46:30;19.00;99.90
10885;DHT22;5495;53.252;10.390;2022-07-22T02:48:58;19.00;99.90
10885;DHT22;5495;53.252;10.390;2022-07-22T02:51:26;19.00;99.90
10885;DHT22;5495;53.252;10.390;2022-07-22T02:53:54;18.90;99.90
10885;DHT22;5495;53.252;10.390;2022-07-22T02:56:22;18.90;99.90
10885;DHT22;5495;53.252;10.390;2022-07-22T02:58:49;18.90;99.90
10885;DHT22;5495;53.252;10.390;2022-07-22T03:01:19;18.90;99.90
10885;DHT22;5495;53.252;10.390;2022-07-22T03:03:48;18.90;99.90
10885;DHT22;5495;53.252;10.390;2022-07-22T03:06:16;18.80;99.90
10885;DHT22;5495;53.252;10.390;2022-07-22T03:08:44;18.80;99.90
10885;DHT22;5495;53.252;10.390;2022-07-22T03:11:12;18.70;99.90
10885;DHT22;5495;53.252;10.390;2022-07-22T03:13:39;18.70;99.90
10885;DHT22;5495;53.252;10.390;2022-07-22T03:16:08;18.70;99.90
10885;DHT22;5495;53.252;10.390;2022-07-22T03:18:36;18.60;99.90
10885;DHT22;5495;53.252;10.390;2022-07-22T03:21:05;18.60;99.90
10885;DHT22;5495;53.252;10.390;2022-07-22T03:23:33;18.60;99.90
10885;DHT22;5495;53.252;10.390;2022-07-22T03:26:00;18.60;99.90
10885;DHT22;5495;53.252;10.390;2022-07-22T03:28:28;18.50;99.90
10885;DHT22;5495;53.252;10.390;2022-07-22T03:30:56;18.50;99.90
10885;DHT22;5495;53.252;10.390;2022-07-22T03:33:23;18.50;99.90
10885;DHT22;5495;53.252;10.390;2022-07-22T03:35:51;18.50;99.90
10885;DHT22;5495;53.252;10.390;2022-07-22T03:38:20;18.40;99.90
10885;DHT22;5495;53.252;10.390;2022-07-22T03:40:48;18.40;99.90
10885;DHT22;5495;53.252;10.390;2022-07-22T03:43:15;18.40;99.90
10885;DHT22;5495;53.252;10.390;2022-07-22T03:45:43;18.40;99.90
10885;DHT22;5495;53.252;10.390;2022-07-22T03:48:11;18.40;99.90
10885;DHT22;5495;53.252;10.390;2022-07-22T03:50:38;18.30;99.90
10885;DHT22;5495;53.252;10.390;2022-07-22T03:53:06;18.40;99.90
10885;DHT22;5495;53.252;10.390;2022-07-22T03:55:35;18.30;99.90
10885;DHT22;5495;53.252;10.390;2022-07-22T03:58:03;18.30;99.90
10885;DHT22;5495;53.252;10.390;2022-07-22T04:00:31;18.30;99.90
10885;DHT22;5495;53.252;10.390;2022-07-22T04:03:00;18.30;99.90
10885;DHT22;5495;53.252;10.390;2022-07-22T04:05:28;18.30;99.90
10885;DHT22;5495;53.252;10.390;2022-07-22T04:07:55;18.30;99.90
10885;DHT22;5495;53.252;10.390;2022-07-22T04:10:24;18.30;99.90
10885;DHT22;5495;53.252;10.390;2022-07-22T04:12:53;18.30;99.90
10885;DHT22;5495;53.252;10.390;2022-07-22T04:15:21;18.30;99.90
10885;DHT22;5495;53.252;10.390;2022-07-22T04:17:48;18.30;99.90
10885;DHT22;5495;53.252;10.390;2022-07-22T04:20:16;18.20;99.90
10885;DHT22;5495;53.252;10.390;2022-07-22T04:22:44;18.20;99.90
10885;DHT22;5495;53.252;10.390;2022-07-22T04:25:12;18.20;99.90
10885;DHT22;5495;53.252;10.390;2022-07-22T04:27:40;18.20;99.90
10885;DHT22;5495;53.252;10.390;2022-07-22T04:30:10;18.20;99.90
10885;DHT22;5495;53.252;10.390;2022-07-22T04:32:38;18.20;99.90
10885;DHT22;5495;53.252;10.390;2022-07-22T04:35:06;18.20;99.90
10885;DHT22;5495;53.252;10.390;2022-07-22T04:37:33;18.20;99.90
10885;DHT22;5495;53.252;10.390;2022-07-22T04:40:02;18.10;99.90
10885;DHT22;5495;53.252;10.390;2022-07-22T04:42:29;18.10;99.90
10885;DHT22;5495;53.252;10.390;2022-07-22T04:44:57;18.10;99.90
10885;DHT22;5495;53.252;10.390;2022-07-22T04:47:26;18.10;99.90
10885;DHT22;5495;53.252;10.390;2022-07-22T04:49:54;18.10;99.90
10885;DHT22;5495;53.252;10.390;2022-07-22T04:52:22;18.10;99.90
10885;DHT22;5495;53.252;10.390;2022-07-22T04:54:51;18.10;99.90
10885;DHT22;5495;53.252;10.390;2022-07-22T04:57:19;18.10;99.90
10885;DHT22;5495;53.252;10.390;2022-07-22T04:59:47;18.10;99.90
10885;DHT22;5495;53.252;10.390;2022-07-22T05:02:15;18.10;99.90
10885;DHT22;5495;53.252;10.390;2022-07-22T05:04:44;18.10;99.90
10885;DHT22;5495;53.252;10.390;2022-07-22T05:07:12;18.10;99.90
10885;DHT22;5495;53.252;10.390;2022-07-22T05:09:40;18.10;99.90
10885;DHT22;5495;53.252;10.390;2022-07-22T05:12:09;18.10;99.90
10885;DHT22;5495;53.252;10.390;2022-07-22T05:14:36;18.10;99.90
10885;DHT22;5495;53.252;10.390;2022-07-22T05:17:09;18.10;99.90
10885;DHT22;5495;53.252;10.390;2022-07-22T05:19:38;18.10;99.90
10885;DHT22;5495;53.252;10.390;2022-07-22T05:22:10;18.20;99.90
10885;DHT22;5495;53.252;10.390;2022-07-22T05:24:38;18.20;99.90
10885;DHT22;5495;53.252;10.390;2022-07-22T05:27:06;18.20;99.90
10885;DHT22;5495;53.252;10.390;2022-07-22T05:29:34;18.10;99.90
10885;DHT22;5495;53.252;10.390;2022-07-22T05:32:02;18.10;99.90
10885;DHT22;5495;53.252;10.390;2022-07-22T05:34:29;18.20;99.90
10885;DHT22;5495;53.252;10.390;2022-07-22T05:36:57;18.20;99.90
10885;DHT22;5495;53.252;10.390;2022-07-22T05:39:27;18.20;99.90
10885;DHT22;5495;53.252;10.390;2022-07-22T05:41:54;18.20;99.90
10885;DHT22;5495;53.252;10.390;2022-07-22T05:44:22;18.30;99.90
10885;DHT22;5495;53.252;10.390;2022-07-22T05:46:50;18.20;99.90
10885;DHT22;5495;53.252;10.390;2022-07-22T05:49:18;18.20;99.90
10885;DHT22;5495;53.252;10.390;2022-07-22T05:51:45;18.20;99.90
10885;DHT22;5495;53.252;10.390;2022-07-22T05:54:13;18.20;99.90
10885;DHT22;5495;53.252;10.390;2022-07-22T05:56:42;18.20;99.90
10885;DHT22;5495;53.252;10.390;2022-07-22T05:59:11;18.20;99.90
10885;DHT22;5495;53.252;10.390;2022-07-22T06:01:39;18.20;99.90
10885;DHT22;5495;53.252;10.390;2022-07-22T06:04:07;18.20;99.90
10885;DHT22;5495;53.252;10.390;2022-07-22T06:06:36;18.20;99.90
10885;DHT22;5495;53.252;10.390;2022-07-22T06:09:04;18.20;99.90
10885;DHT22;5495;53.252;10.390;2022-07-22T06:11:31;18.20;99.90
10885;DHT22;5495;53.252;10.390;2022-07-22T06:14:01;18.20;99.90
10885;DHT22;5495;53.252;10.390;2022-07-22T06:16:29;18.20;99.90
10885;DHT22;5495;53.252;10.390;2022-07-22T06:18:58;18.20;99.90
10885;DHT22;5495;53.252;10.390;2022-07-22T06:21:26;18.10;99.90
10885;DHT22;5495;53.252;10.390;2022-07-22T06:23:53;18.10;99.90
10885;DHT22;5495;53.252;10.390;2022-07-22T06:26:21;18.10;99.90
10885;DHT22;5495;53.252;10.390;2022-07-22T06:28:49;18.00;99.90
10885;DHT22;5495;53.252;10.390;2022-07-22T06:31:18;18.00;99.90
10885;DHT22;5495;53.252;10.390;2022-07-22T06:33:46;18.00;99.90
10885;DHT22;5495;53.252;10.390;2022-07-22T06:36:13;18.10;99.90
10885;DHT22;5495;53.252;10.390;2022-07-22T06:38:43;18.10;99.90
10885;DHT22;5495;53.252;10.390;2022-07-22T06:41:11;18.20;99.90
10885;DHT22;5495;53.252;10.390;2022-07-22T06:43:45;18.30;99.90
10885;DHT22;5495;53.252;10.390;2022-07-22T06:46:13;18.30;99.90
10885;DHT22;5495;53.252;10.390;2022-07-22T06:48:42;18.30;99.90
10885;DHT22;5495;53.252;10.390;2022-07-22T06:51:10;18.40;99.90
10885;DHT22;5495;53.252;10.390;2022-07-22T06:53:38;18.30;99.90
10885;DHT22;5495;53.252;10.390;2022-07-22T06:56:06;18.40;99.90
10885;DHT22;5495;53.252;10.390;2022-07-22T06:58:34;18.50;99.90
10885;DHT22;5495;53.252;10.390;2022-07-22T07:01:02;18.60;99.90
10885;DHT22;5495;53.252;10.390;2022-07-22T07:03:30;18.80;99.90
10885;DHT22;5495;53.252;10.390;2022-07-22T07:05:59;18.90;99.90
10885;DHT22;5495;53.252;10.390;2022-07-22T07:08:27;19.10;99.90
10885;DHT22;5495;53.252;10.390;2022-07-22T07:10:54;19.30;99.90
10885;DHT22;5495;53.252;10.390;2022-07-22T07:13:23;19.40;99.90
10885;DHT22;5495;53.252;10.390;2022-07-22T07:15:50;19.40;99.90
10885;DHT22;5495;53.252;10.390;2022-07-22T07:18:18;19.40;99.90
10885;DHT22;5495;53.252;10.390;2022-07-22T07:20:46;19.40;99.90
10885;DHT22;5495;53.252;10.390;2022-07-22T07:23:15;19.40;99.90
10885;DHT22;5495;53.252;10.390;2022-07-22T07:25:43;19.40;99.90
10885;DHT22;5495;53.252;10.390;2022-07-22T07:28:11;19.50;99.90
10885;DHT22;5495;53.252;10.390;2022-07-22T07:30:38;19.50;99.90
10885;DHT22;5495;53.252;10.390;2022-07-22T07:33:06;19.50;99.90
10885;DHT22;5495;53.252;10.390;2022-07-22T07:35:34;19.50;99.90
10885;DHT22;5495;53.252;10.390;2022-07-22T07:38:02;19.60;99.90
10885;DHT22;5495;53.252;10.390;2022-07-22T07:40:31;19.60;99.90
10885;DHT22;5495;53.252;10.390;2022-07-22T07:42:59;19.70;99.90
10885;DHT22;5495;53.252;10.390;2022-07-22T07:45:28;19.80;99.90
10885;DHT22;5495;53.252;10.390;2022-07-22T07:47:59;19.90;99.90
10885;DHT22;5495;53.252;10.390;2022-07-22T07:50:27;20.00;99.90
10885;DHT22;5495;53.252;10.390;2022-07-22T07:52:56;19.90;99.90
10885;DHT22;5495;53.252;10.390;2022-07-22T07:55:24;19.90;99.90
10885;DHT22;5495;53.252;10.390;2022-07-22T07:57:54;19.80;99.90
10885;DHT22;5495;53.252;10.390;2022-07-22T08:00:24;19.80;99.90
10885;DHT22;5495;53.252;10.390;2022-07-22T08:02:56;19.70;99.90
10885;DHT22;5495;53.252;10.390;2022-07-22T08:05:24;19.70;99.90
10885;DHT22;5495;53.252;10.390;2022-07-22T08:07:52;19.60;99.90
10885;DHT22;5495;53.252;10.390;2022-07-22T08:10:20;19.50;99.90
10885;DHT22;5495;53.252;10.390;2022-07-22T08:12:48;19.40;99.90
10885;DHT22;5495;53.252;10.390;2022-07-22T08:15:18;19.40;99.90
10885;DHT22;5495;53.252;10.390;2022-07-22T08:17:46;19.40;99.90
10885;DHT22;5495;53.252;10.390;2022-07-22T08:20:14;19.40;99.90
10885;DHT22;5495;53.252;10.390;2022-07-22T08:22:41;19.40;99.90
10885;DHT22;5495;53.252;10.390;2022-07-22T08:25:09;19.40;99.90
10885;DHT22;5495;53.252;10.390;2022-07-22T08:27:37;19.40;99.90
10885;DHT22;5495;53.252;10.390;2022-07-22T08:30:07;19.40;99.90
10885;DHT22;5495;53.252;10.390;2022-07-22T08:32:36;19.40;99.90
10885;DHT22;5495;53.252;10.390;2022-07-22T08:35:07;19.40;99.90
10885;DHT22;5495;53.252;10.390;2022-07-22T08:37:35;19.40;99.90
10885;DHT22;5495;53.252;10.390;2022-07-22T08:40:04;19.50;99.90
10885;DHT22;5495;53.252;10.390;2022-07-22T08:42:37;19.50;99.90
10885;DHT22;5495;53.252;10.390;2022-07-22T08:45:06;19.50;99.90
10885;DHT22;5495;53.252;10.390;2022-07-22T08:47:34;19.40;99.90
10885;DHT22;5495;53.252;10.390;2022-07-22T08:50:04;19.40;99.90
10885;DHT22;5495;53.252;10.390;2022-07-22T08:52:32;19.30;99.90
10885;DHT22;5495;53.252;10.390;2022-07-22T08:55:02;19.20;99.90
10885;DHT22;5495;53.252;10.390;2022-07-22T08:57:31;19.20;99.90
10885;DHT22;5495;53.252;10.390;2022-07-22T09:00:00;19.20;99.90
10885;DHT22;5495;53.252;10.390;2022-07-22T09:02:36;19.30;99.90
10885;DHT22;5495;53.252;10.390;2022-07-22T09:05:09;19.40;99.90
10885;DHT22;5495;53.252;10.390;2022-07-22T09:07:38;19.50;99.90
10885;DHT22;5495;53.252;10.390;2022-07-22T09:10:08;19.60;99.90
10885;DHT22;5495;53.252;10.390;2022-07-22T09:12:50;19.60;99.90
10885;DHT22;5495;53.252;10.390;2022-07-22T09:15:26;19.70;99.90
10885;DHT22;5495;53.252;10.390;2022-07-22T09:17:54;19.60;99.90
10885;DHT22;5495;53.252;10.390;2022-07-22T09:20:27;19.60;99.90
10885;DHT22;5495;53.252;10.390;2022-07-22T09:22:55;19.60;99.90
10885;DHT22;5495;53.252;10.390;2022-07-22T09:25:26;19.70;99.90
10885;DHT22;5495;53.252;10.390;2022-07-22T09:27:56;19.70;99.90
10885;DHT22;5495;53.252;10.390;2022-07-22T09:30:37;19.80;99.90
10885;DHT22;5495;53.252;10.390;2022-07-22T09:33:07;19.80;99.90
10885;DHT22;5495;53.252;10.390;2022-07-22T09:35:36;19.90;99.90
10885;DHT22;5495;53.252;10.390;2022-07-22T09:38:06;20.00;99.90
10885;DHT22;5495;53.252;10.390;2022-07-22T09:40:36;20.00;99.90
10885;DHT22;5495;53.252;10.390;2022-07-22T09:43:06;20.00;99.90
10885;DHT22;5495;53.252;10.390;2022-07-22T09:45:44;20.10;99.90
10885;DHT22;5495;53.252;10.390;2022-07-22T09:48:14;20.00;99.90
10885;DHT22;5495;53.252;10.390;2022-07-22T09:50:45;20.00;99.90
10885;DHT22;5495;53.252;10.390;2022-07-22T09:53:14;20.00;99.90
10885;DHT22;5495;53.252;10.390;2022-07-22T09:55:42;19.90;99.90
10885;DHT22;5495;53.252;10.390;2022-07-22T09:58:10;20.00;99.90
10885;DHT22;5495;53.252;10.390;2022-07-22T10:00:44;19.90;99.90
10885;DHT22;5495;53.252;10.390;2022-07-22T10:03:17;19.90;99.90
10885;DHT22;5495;53.252;10.390;2022-07-22T10:05:47;20.00;99.90
10885;DHT22;5495;53.252;10.390;2022-07-22T10:08:15;20.00;99.90
10885;DHT22;5495;53.252;10.390;2022-07-22T10:10:43;20.10;99.90
10885;DHT22;5495;53.252;10.390;2022-07-22T10:13:11;20.10;99.90
10885;DHT22;5495;53.252;10.390;2022-07-22T10:15:39;20.20;99.90
10885;DHT22;5495;53.252;10.390;2022-07-22T10:18:08;20.20;99.90
10885;DHT22;5495;53.252;10.390;2022-07-22T10:20:37;20.20;99.90
10885;DHT22;5495;53.252;10.390;2022-07-22T10:23:07;20.20;99.90
10885;DHT22;5495;53.252;10.390;2022-07-22T10:25:49;20.20;99.90
10885;DHT22;5495;53.252;10.390;2022-07-22T10:28:22;20.20;99.90
10885;DHT22;5495;53.252;10.390;2022-07-22T10:30:51;20.10;99.90
10885;DHT22;5495;53.252;10.390;2022-07-22T10:33:19;20.10;99.90
10885;DHT22;5495;53.252;10.390;2022-07-22T10:35:57;20.00;99.90
10885;DHT22;5495;53.252;10.390;2022-07-22T10:38:30;20.10;99.90
10885;DHT22;5495;53.252;10.390;2022-07-22T10:41:00;20.20;99.90
10885;DHT22;5495;53.252;10.390;2022-07-22T10:43:29;20.30;99.90
10885;DHT22;5495;53.252;10.390;2022-07-22T10:45:58;20.30;99.90
10885;DHT22;5495;53.252;10.390;2022-07-22T10:48:44;20.30;99.90
10885;DHT22;5495;53.252;10.390;2022-07-22T10:51:14;20.30;99.90
10885;DHT22;5495;53.252;10.390;2022-07-22T10:53:46;20.30;99.90
10885;DHT22;5495;53.252;10.390;2022-07-22T10:56:17;20.20;99.90
10885;DHT22;5495;53.252;10.390;2022-07-22T10:58:49;20.20;99.90
10885;DHT22;5495;53.252;10.390;2022-07-22T11:01:19;20.20;99.90
10885;DHT22;5495;53.252;10.390;2022-07-22T11:03:48;20.20;99.90
10885;DHT22;5495;53.252;10.390;2022-07-22T11:06:19;20.30;99.90
10885;DHT22;5495;53.252;10.390;2022-07-22T11:08:51;20.30;99.90
10885;DHT22;5495;53.252;10.390;2022-07-22T11:11:31;20.50;99.90
10885;DHT22;5495;53.252;10.390;2022-07-22T11:14:00;20.60;99.90
10885;DHT22;5495;53.252;10.390;2022-07-22T11:16:28;20.60;99.90
10885;DHT22;5495;53.252;10.390;2022-07-22T11:18:58;20.70;99.90
10885;DHT22;5495;53.252;10.390;2022-07-22T11:21:28;21.00;99.90
10885;DHT22;5495;53.252;10.390;2022-07-22T11:23:59;21.10;99.90
10885;DHT22;5495;53.252;10.390;2022-07-22T11:26:36;21.30;99.90
10885;DHT22;5495;53.252;10.390;2022-07-22T11:29:05;21.60;99.90
10885;DHT22;5495;53.252;10.390;2022-07-22T11:31:33;21.70;99.90
10885;DHT22;5495;53.252;10.390;2022-07-22T11:34:08;21.70;99.90
10885;DHT22;5495;53.252;10.390;2022-07-22T11:36:38;21.50;99.90
10885;DHT22;5495;53.252;10.390;2022-07-22T11:39:09;21.50;99.90
10885;DHT22;5495;53.252;10.390;2022-07-22T11:41:37;21.40;99.90
10885;DHT22;5495;53.252;10.390;2022-07-22T11:44:05;21.30;99.90
10885;DHT22;5495;53.252;10.390;2022-07-22T11:46:38;21.10;99.90
10885;DHT22;5495;53.252;10.390;2022-07-22T11:49:07;20.90;99.90
10885;DHT22;5495;53.252;10.390;2022-07-22T11:51:36;21.20;99.90
10885;DHT22;5495;53.252;10.390;2022-07-22T11:54:06;21.20;99.90
10885;DHT22;5495;53.252;10.390;2022-07-22T11:56:35;21.30;99.90
10885;DHT22;5495;53.252;10.390;2022-07-22T11:59:06;21.40;99.90
10885;DHT22;5495;53.252;10.390;2022-07-22T12:01:36;21.60;99.90
10885;DHT22;5495;53.252;10.390;2022-07-22T12:04:09;21.60;99.90
10885;DHT22;5495;53.252;10.390;2022-07-22T12:06:43;21.70;99.90
10885;DHT22;5495;53.252;10.390;2022-07-22T12:09:15;21.80;99.90
10885;DHT22;5495;53.252;10.390;2022-07-22T12:11:44;21.90;99.90
10885;DHT22;5495;53.252;10.390;2022-07-22T12:14:14;21.70;99.90
10885;DHT22;5495;53.252;10.390;2022-07-22T12:16:44;21.60;99.90
10885;DHT22;5495;53.252;10.390;2022-07-22T12:19:12;21.50;99.90
10885;DHT22;5495;53.252;10.390;2022-07-22T12:21:51;21.50;99.90
10885;DHT22;5495;53.252;10.390;2022-07-22T12:24:28;21.40;99.90
10885;DHT22;5495;53.252;10.390;2022-07-22T12:26:57;21.20;99.90
10885;DHT22;5495;53.252;10.390;2022-07-22T12:29:28;21.10;99.90
10885;DHT22;5495;53.252;10.390;2022-07-22T12:31:59;21.10;99.90
10885;DHT22;5495;53.252;10.390;2022-07-22T12:34:40;21.10;99.90
10885;DHT22;5495;53.252;10.390;2022-07-22T12:37:13;21.10;99.90
10885;DHT22;5495;53.252;10.390;2022-07-22T12:39:56;21.30;99.90
10885;DHT22;5495;53.252;10.390;2022-07-22T12:42:26;21.40;99.90
10885;DHT22;5495;53.252;10.390;2022-07-22T12:45:00;21.60;99.90
10885;DHT22;5495;53.252;10.390;2022-07-22T12:47:43;21.70;99.90
10885;DHT22;5495;53.252;10.390;2022-07-22T12:50:25;21.70;99.90
10885;DHT22;5495;53.252;10.390;2022-07-22T12:52:55;21.60;99.90
10885;DHT22;5495;53.252;10.390;2022-07-22T12:55:30;21.50;99.90
10885;DHT22;5495;53.252;10.390;2022-07-22T12:58:00;21.50;99.90
10885;DHT22;5495;53.252;10.390;2022-07-22T13:00:29;21.50;99.90
10885;DHT22;5495;53.252;10.390;2022-07-22T13:02:57;21.80;99.90
10885;DHT22;5495;53.252;10.390;2022-07-22T13:05:25;21.80;99.90
10885;DHT22;5495;53.252;10.390;2022-07-22T13:07:54;21.80;99.90
10885;DHT22;5495;53.252;10.390;2022-07-22T13:10:23;21.90;99.90
10885;DHT22;5495;53.252;10.390;2022-07-22T13:12:54;22.00;99.90
10885;DHT22;5495;53.252;10.390;2022-07-22T13:15:24;22.10;99.90
10885;DHT22;5495;53.252;10.390;2022-07-22T13:17:54;22.00;99.90
10885;DHT22;5495;53.252;10.390;2022-07-22T13:20:22;22.10;99.90
10885;DHT22;5495;53.252;10.390;2022-07-22T13:22:50;22.40;99.90
10885;DHT22;5495;53.252;10.390;2022-07-22T13:25:18;22.60;99.90
10885;DHT22;5495;53.252;10.390;2022-07-22T13:27:46;22.70;99.90
10885;DHT22;5495;53.252;10.390;2022-07-22T13:30:15;22.70;99.90
10885;DHT22;5495;53.252;10.390;2022-07-22T13:32:42;22.70;99.90
10885;DHT22;5495;53.252;10.390;2022-07-22T13:35:11;22.60;99.90
10885;DHT22;5495;53.252;10.390;2022-07-22T13:37:41;22.50;99.90
10885;DHT22;5495;53.252;10.390;2022-07-22T13:40:10;22.60;99.90
10885;DHT22;5495;53.252;10.390;2022-07-22T13:42:38;22.90;99.90
10885;DHT22;5495;53.252;10.390;2022-07-22T13:45:11;22.80;99.90
10885;DHT22;5495;53.252;10.390;2022-07-22T13:47:41;22.80;99.90
10885;DHT22;5495;53.252;10.390;2022-07-22T13:50:10;22.80;99.90
10885;DHT22;5495;53.252;10.390;2022-07-22T13:52:40;22.80;99.90
10885;DHT22;5495;53.252;10.390;2022-07-22T13:55:23;21.10;99.90
10885;DHT22;5495;53.252;10.390;2022-07-22T13:57:59;23.00;99.90
10885;DHT22;5495;53.252;10.390;2022-07-22T14:00:39;22.80;99.90
10885;DHT22;5495;53.252;10.390;2022-07-22T14:03:28;22.80;99.90
10885;DHT22;5495;53.252;10.390;2022-07-22T14:06:28;22.80;99.90
10885;DHT22;5495;53.252;10.390;2022-07-22T14:09:14;23.60;99.90
10885;DHT22;5495;53.252;10.390;2022-07-22T14:11:51;22.40;99.90
10885;DHT22;5495;53.252;10.390;2022-07-22T14:14:32;22.30;99.90
10885;DHT22;5495;53.252;10.390;2022-07-22T14:20:20;23.00;99.90
10885;DHT22;5495;53.252;10.390;2022-07-22T14:23:30;23.60;99.90
10885;DHT22;5495;53.252;10.390;2022-07-22T14:26:14;23.20;99.90
10885;DHT22;5495;53.252;10.390;2022-07-22T14:28:54;24.50;99.90
10885;DHT22;5495;53.252;10.390;2022-07-22T14:31:56;23.10;99.90
10885;DHT22;5495;53.252;10.390;2022-07-22T14:34:46;23.60;99.90
10885;DHT22;5495;53.252;10.390;2022-07-22T14:37:34;23.60;99.90
10885;DHT22;5495;53.252;10.390;2022-07-22T14:40:27;23.20;99.90
10885;DHT22;5495;53.252;10.390;2022-07-22T14:43:03;23.10;99.90
10885;DHT22;5495;53.252;10.390;2022-07-22T14:46:06;23.20;99.90
10885;DHT22;5495;53.252;10.390;2022-07-22T14:48:30;22.00;99.90
10885;DHT22;5495;53.252;10.390;2022-07-22T14:51:19;23.30;99.90
10885;DHT22;5495;53.252;10.390;2022-07-22T14:53:56;23.30;99.90
10885;DHT22;5495;53.252;10.390;2022-07-22T14:57:26;23.00;99.90
10885;DHT22;5495;53.252;10.390;2022-07-22T14:59:37;22.60;99.90
10885;DHT22;5495;53.252;10.390;2022-07-22T15:02:14;22.60;99.90
10885;DHT22;5495;53.252;10.390;2022-07-22T15:04:59;22.50;99.90
10885;DHT22;5495;53.252;10.390;2022-07-22T15:07:56;22.50;99.90
10885;DHT22;5495;53.252;10.390;2022-07-22T15:10:39;22.70;99.90
10885;DHT22;5495;53.252;10.390;2022-07-22T15:13:50;22.50;99.90
10885;DHT22;5495;53.252;10.390;2022-07-22T15:16:26;22.80;99.90
10885;DHT22;5495;53.252;10.390;2022-07-22T15:19:02;22.60;99.90
10885;DHT22;5495;53.252;10.390;2022-07-22T15:22:04;22.60;99.90
10885;DHT22;5495;53.252;10.390;2022-07-22T15:24:51;22.50;99.90
10885;DHT22;5495;53.252;10.390;2022-07-22T15:27:21;22.30;99.90
10885;DHT22;5495;53.252;10.390;2022-07-22T15:29:49;22.20;99.90
10885;DHT22;5495;53.252;10.390;2022-07-22T15:32:28;22.20;99.90
10885;DHT22;5495;53.252;10.390;2022-07-22T15:35:09;22.20;99.90
10885;DHT22;5495;53.252;10.390;2022-07-22T15:37:39;22.00;99.90
10885;DHT22;5495;53.252;10.390;2022-07-22T15:40:13;22.00;99.90
10885;DHT22;5495;53.252;10.390;2022-07-22T15:42:54;22.00;99.90
10885;DHT22;5495;53.252;10.390;2022-07-22T15:45:22;21.00;99.90
10885;DHT22;5495;53.252;10.390;2022-07-22T15:48:01;22.00;99.90
10885;DHT22;5495;53.252;10.390;2022-07-22T15:53:59;21.90;99.90
10885;DHT22;5495;53.252;10.390;2022-07-22T15:56:43;22.10;99.90
10885;DHT22;5495;53.252;10.390;2022-07-22T15:59:16;21.90;99.90